Terminal Aerodrome Forecast
Issued by NWS

Home | Current Version | Previous Version | Text Only | Print | Product List | Glossary On
Versions: 1 2 3 4 5 6 7 8 9 10 11 12 13 14 15 16 17 18 19 20 21 22 23
000
FTUS41 KBUF 042059 AAB
TAFIAG
TAF AMD
KIAG 042059Z 0421/0518 25022G32KT P6SM -RA SCT080 OVC100
     FM042300 25012KT 6SM -SHRA BKN040
     FM050300 28008KT P6SM SCT025 BKN040
     FM050700 VRB03KT P6SM SCT025 BKN070
     FM051500 06008KT P6SM SCT150 BKN250=

USA.gov is the U.S. government's official web portal to all federal, state and local government web resources and services.